Time;durP1;ratioP1;P1;durP2;ratioP2;P2;SDS_P1;SDS_P2;PMS_P1;PMS_P2;Temp;Humidity;BMP_temperature;BMP_pressure;BME280_temperature;BME280_humidity;BME280_pressure;Samples;Min_cycle;Max_cycle;Signal;HPM_P1;HPM_P2
2021/11/03 00:02:27;;;;;;;11.45;10.30;;;6.00;99.90;;;;;;5023233;28;20278;-82
2021/11/03 00:04:54;;;;;;;10.02;9.13;;;6.00;99.90;;;;;;5023512;28;20230;-81
2021/11/03 00:07:21;;;;;;;11.10;10.10;;;6.00;99.90;;;;;;5023534;28;20210;-80
2021/11/03 00:09:49;;;;;;;10.75;9.82;;;6.00;99.90;;;;;;5023968;28;20237;-82
2021/11/03 00:12:17;;;;;;;10.40;9.50;;;6.00;99.90;;;;;;5023385;28;20267;-80
2021/11/03 00:14:44;;;;;;;10.95;9.95;;;6.00;99.90;;;;;;5024885;28;20267;-81
2021/11/03 00:17:11;;;;;;;9.90;9.00;;;6.10;99.90;;;;;;5024269;28;20227;-81
2021/11/03 00:19:37;;;;;;;10.90;10.00;;;6.10;99.90;;;;;;5025501;28;20230;-82
2021/11/03 00:22:05;;;;;;;10.55;9.35;;;6.10;99.90;;;;;;5022955;28;20206;-79
2021/11/03 00:24:34;;;;;;;9.20;8.40;;;6.10;99.90;;;;;;5023043;28;20211;-80
2021/11/03 00:27:00;;;;;;;11.02;10.02;;;6.10;99.90;;;;;;5024440;28;20238;-80
2021/11/03 00:29:29;;;;;;;11.13;10.20;;;6.20;99.90;;;;;;5023584;28;20238;-80
2021/11/03 00:31:55;;;;;;;11.48;10.50;;;6.20;99.90;;;;;;5023549;28;20203;-82
2021/11/03 00:34:22;;;;;;;10.57;9.80;;;6.30;99.90;;;;;;5023721;28;20218;-81
2021/11/03 00:36:49;;;;;;;11.07;10.25;;;6.30;99.90;;;;;;5024353;28;20223;-82
2021/11/03 00:39:16;;;;;;;11.38;10.35;;;6.30;99.90;;;;;;5031149;28;20241;-82
2021/11/03 00:41:42;;;;;;;11.07;10.18;;;6.40;99.90;;;;;;5034612;28;20203;-82
2021/11/03 00:44:09;;;;;;;10.57;9.52;;;6.40;99.90;;;;;;5036018;28;20190;-81
2021/11/03 00:46:37;;;;;;;10.90;9.98;;;6.40;99.90;;;;;;5034821;28;20191;-82
2021/11/03 00:49:04;;;;;;;11.13;10.13;;;6.40;99.90;;;;;;5031969;28;20203;-82
2021/11/03 00:51:31;;;;;;;10.95;10.05;;;6.50;99.90;;;;;;5027918;28;20211;-82
2021/11/03 00:53:58;;;;;;;10.30;9.40;;;6.50;99.90;;;;;;5027258;28;20214;-81
2021/11/03 00:56:24;;;;;;;11.98;10.88;;;6.60;99.90;;;;;;5027009;28;20234;-81
2021/11/03 00:58:51;;;;;;;8.98;8.18;;;6.60;99.90;;;;;;5027499;28;20218;-81
2021/11/03 01:01:18;;;;;;;10.45;8.73;;;6.60;99.90;;;;;;5025462;28;20207;-80
2021/11/03 01:03:47;;;;;;;9.45;8.48;;;6.70;99.90;;;;;;5023612;28;20221;-83
2021/11/03 01:06:14;;;;;;;10.27;9.40;;;6.70;99.90;;;;;;5023855;28;20203;-81
2021/11/03 01:08:41;;;;;;;9.98;8.95;;;6.70;99.90;;;;;;5023734;28;20203;-81
2021/11/03 01:11:07;;;;;;;9.63;8.63;;;6.80;99.90;;;;;;5023652;28;20233;-80
2021/11/03 01:13:35;;;;;;;9.82;8.90;;;6.80;99.90;;;;;;5022937;28;20218;-81
2021/11/03 01:16:02;;;;;;;9.55;8.55;;;6.80;99.90;;;;;;5025556;28;20226;-80
2021/11/03 01:18:31;;;;;;;11.95;10.60;;;6.80;99.90;;;;;;5027774;28;20226;-82
2021/11/03 01:21:02;;;;;;;9.80;9.00;;;6.80;99.90;;;;;;5027966;28;20712;-82
2021/11/03 01:23:29;;;;;;;9.75;8.85;;;6.80;99.90;;;;;;5027544;28;20218;-82
2021/11/03 01:25:57;;;;;;;10.32;9.52;;;6.60;99.90;;;;;;5027536;28;20206;-82
2021/11/03 01:28:24;;;;;;;10.80;9.85;;;6.60;99.90;;;;;;5027439;28;20200;-82
2021/11/03 01:30:51;;;;;;;10.80;9.90;;;6.50;99.90;;;;;;5049339;23;20241;-81
2021/11/03 01:33:20;;;;;;;10.10;9.15;;;6.50;99.90;;;;;;5041189;28;20221;-81
2021/11/03 01:35:47;;;;;;;11.15;10.05;;;6.50;99.90;;;;;;5042874;28;20227;-81
2021/11/03 01:38:16;;;;;;;9.00;8.23;;;6.50;99.90;;;;;;5042597;28;20213;-81
2021/11/03 01:40:45;;;;;;;11.80;10.60;;;6.40;99.90;;;;;;5042250;28;20227;-81
2021/11/03 01:43:18;;;;;;;9.15;8.43;;;6.40;99.90;;;;;;5039655;28;20210;-81
2021/11/03 01:45:48;;;;;;;9.10;8.30;;;6.40;99.90;;;;;;5022633;28;20203;-81
2021/11/03 01:48:15;;;;;;;7.78;7.07;;;6.50;99.90;;;;;;5005801;28;20261;-82
2021/11/03 01:50:49;;;;;;;10.27;9.38;;;6.50;99.90;;;;;;5021687;28;20227;-81
2021/11/03 01:53:20;;;;;;;8.65;7.85;;;6.50;99.90;;;;;;5040416;28;20206;-81
2021/11/03 01:55:51;;;;;;;7.90;7.20;;;6.50;99.90;;;;;;5040246;28;20695;-81
2021/11/03 01:58:21;;;;;;;7.97;7.28;;;6.50;99.90;;;;;;5039435;28;20208;-82
2021/11/03 02:00:51;;;;;;;8.27;7.50;;;6.50;99.90;;;;;;5039856;28;20237;-81
2021/11/03 02:03:22;;;;;;;8.65;7.95;;;6.60;99.90;;;;;;5021372;28;20218;-81
2021/11/03 02:05:53;;;;;;;10.10;8.98;;;6.60;99.90;;;;;;5020477;28;20222;-82
2021/11/03 02:08:22;;;;;;;10.35;7.55;;;6.70;99.90;;;;;;5038668;28;20213;-81
2021/11/03 02:10:48;;;;;;;8.13;7.43;;;6.80;99.90;;;;;;5042622;28;20233;-81
2021/11/03 02:13:16;;;;;;;9.20;8.40;;;6.80;99.90;;;;;;5047566;28;20198;-81
2021/11/03 02:15:44;;;;;;;8.40;7.80;;;6.90;99.90;;;;;;5046803;28;20209;-81
2021/11/03 02:18:13;;;;;;;7.63;7.03;;;6.90;99.90;;;;;;5020257;28;20211;-81
2021/11/03 02:20:42;;;;;;;8.18;7.50;;;6.90;99.90;;;;;;5022395;28;20254;-81
2021/11/03 02:23:18;;;;;;;8.05;7.47;;;6.90;99.90;;;;;;5049168;28;20220;-81
2021/11/03 02:25:50;;;;;;;6.78;6.18;;;6.90;99.90;;;;;;5050342;28;20229;-81
2021/11/03 02:28:17;;;;;;;7.15;6.55;;;7.00;99.90;;;;;;5024468;28;20210;-81
2021/11/03 02:30:44;;;;;;;8.18;7.35;;;6.90;99.90;;;;;;5024843;28;20265;-81
2021/11/03 02:33:16;;;;;;;7.45;6.68;;;6.80;99.90;;;;;;5031194;28;20206;-80
2021/11/03 02:35:50;;;;;;;8.05;7.25;;;6.80;99.90;;;;;;5033448;28;20207;-81
2021/11/03 02:38:28;;;;;;;8.50;7.72;;;6.80;99.90;;;;;;5029594;28;20301;-81
2021/11/03 02:41:02;;;;;;;8.25;7.43;;;6.80;99.90;;;;;;5026516;28;20233;-81
2021/11/03 02:43:32;;;;;;;8.15;7.45;;;6.80;99.90;;;;;;5039352;28;20221;-81
2021/11/03 02:46:02;;;;;;;7.22;6.65;;;6.80;99.90;;;;;;5020694;28;20209;-81
2021/11/03 02:48:32;;;;;;;7.78;7.15;;;6.70;99.90;;;;;;5020969;28;20203;-81
2021/11/03 02:51:03;;;;;;;7.50;6.75;;;6.70;99.90;;;;;;5023673;28;20225;-81
2021/11/03 02:53:31;;;;;;;7.95;6.68;;;6.60;99.90;;;;;;5040526;28;20564;-81
2021/11/03 02:55:59;;;;;;;7.40;6.70;;;6.60;99.90;;;;;;5040282;28;20213;-81
2021/11/03 02:58:27;;;;;;;9.75;6.50;;;6.60;99.90;;;;;;5039696;28;20214;-81
2021/11/03 03:00:55;;;;;;;7.28;6.68;;;6.60;99.90;;;;;;5021962;28;20231;-81
2021/11/03 03:03:23;;;;;;;8.38;7.63;;;6.50;99.90;;;;;;5040148;28;20207;-81
2021/11/03 03:05:56;;;;;;;7.50;6.80;;;6.50;99.90;;;;;;5021964;28;20214;-81
2021/11/03 03:08:24;;;;;;;9.68;6.57;;;6.50;99.90;;;;;;5019508;28;20233;-81
2021/11/03 03:10:51;;;;;;;7.10;6.45;;;6.40;99.90;;;;;;5034326;28;20226;-81
2021/11/03 03:13:19;;;;;;;7.30;6.60;;;6.40;99.90;;;;;;5018956;28;20207;-81
2021/11/03 03:15:45;;;;;;;7.10;6.60;;;6.40;99.90;;;;;;5036322;28;20214;-81
2021/11/03 03:18:12;;;;;;;7.55;7.00;;;6.40;99.90;;;;;;5039493;28;20226;-81
2021/11/03 03:20:39;;;;;;;7.00;6.40;;;6.40;99.90;;;;;;5024718;28;20227;-81
2021/11/03 03:23:06;;;;;;;8.02;7.32;;;6.30;99.90;;;;;;5038642;28;20206;-81
2021/11/03 03:25:35;;;;;;;7.38;6.72;;;6.30;99.90;;;;;;5024691;28;20211;-81
2021/11/03 03:28:01;;;;;;;10.40;6.82;;;6.40;99.90;;;;;;5018988;28;20207;-81
2021/11/03 03:30:30;;;;;;;7.90;7.10;;;6.40;99.90;;;;;;5031162;28;20230;-81
2021/11/03 03:32:56;;;;;;;10.15;9.38;;;6.40;99.90;;;;;;5020352;28;20576;-81
2021/11/03 03:35:23;;;;;;;7.68;7.07;;;6.40;99.90;;;;;;5029940;28;20203;-81
2021/11/03 03:37:50;;;;;;;6.32;5.75;;;6.40;99.90;;;;;;5038346;28;20226;-81
2021/11/03 03:40:17;;;;;;;8.80;8.00;;;6.40;99.90;;;;;;5028399;28;20219;-81
2021/11/03 03:42:44;;;;;;;7.93;7.10;;;6.40;99.90;;;;;;5018710;28;20704;-81
2021/11/03 03:45:12;;;;;;;7.90;7.28;;;6.50;99.90;;;;;;5018898;28;20210;-81
2021/11/03 03:47:40;;;;;;;8.05;7.40;;;6.50;99.90;;;;;;5020591;28;20207;-81
2021/11/03 03:50:09;;;;;;;6.97;6.43;;;6.50;99.90;;;;;;5039597;28;20231;-81
2021/11/03 03:52:35;;;;;;;6.45;5.90;;;6.60;99.90;;;;;;5038139;28;20206;-81
2021/11/03 03:55:05;;;;;;;7.38;6.75;;;6.60;99.90;;;;;;5038461;28;20206;-81
2021/11/03 03:57:31;;;;;;;7.40;6.72;;;6.70;99.90;;;;;;5025427;28;20227;-81
2021/11/03 03:59:58;;;;;;;8.60;7.05;;;6.70;99.90;;;;;;5019543;28;20231;-81
2021/11/03 04:02:25;;;;;;;7.47;6.97;;;6.70;99.90;;;;;;5031190;28;20209;-81
2021/11/03 04:04:53;;;;;;;7.57;6.90;;;6.70;99.90;;;;;;5038392;28;20214;-81
2021/11/03 04:07:19;;;;;;;7.50;6.80;;;6.80;99.90;;;;;;5026445;28;20199;-81
2021/11/03 04:09:46;;;;;;;6.60;6.10;;;6.80;99.90;;;;;;5026546;28;20240;-81
2021/11/03 04:12:13;;;;;;;8.65;7.93;;;6.80;99.90;;;;;;5037792;28;20205;-81
2021/11/03 04:14:40;;;;;;;8.30;7.60;;;6.80;99.90;;;;;;5032569;28;20210;-81
2021/11/03 04:17:06;;;;;;;6.93;6.32;;;6.80;99.90;;;;;;5018075;28;20234;-81
2021/11/03 04:19:33;;;;;;;7.82;7.22;;;6.80;99.90;;;;;;5023559;28;20199;-81
2021/11/03 04:22:01;;;;;;;8.02;6.88;;;6.80;99.90;;;;;;5030092;28;20207;-81
2021/11/03 04:24:28;;;;;;;9.50;8.60;;;6.80;99.90;;;;;;5025037;28;20690;-81
2021/11/03 04:26:55;;;;;;;7.90;7.30;;;6.80;99.90;;;;;;5040122;28;20210;-81
2021/11/03 04:29:23;;;;;;;7.68;6.45;;;6.80;99.90;;;;;;5037971;28;20206;-81
2021/11/03 04:31:50;;;;;;;6.50;6.10;;;6.80;99.90;;;;;;5027450;28;20214;-81
2021/11/03 04:34:19;;;;;;;7.68;7.10;;;6.80;99.90;;;;;;5039524;28;20277;-81
2021/11/03 04:36:46;;;;;;;7.57;6.97;;;6.80;99.90;;;;;;5039587;28;20226;-81
2021/11/03 04:39:15;;;;;;;8.40;7.60;;;6.80;99.90;;;;;;5039366;28;20214;-81
2021/11/03 04:41:41;;;;;;;6.90;6.30;;;6.80;99.90;;;;;;5033597;28;20229;-81
2021/11/03 04:44:09;;;;;;;10.02;8.15;;;6.80;99.90;;;;;;5021723;28;20623;-81
2021/11/03 04:46:36;;;;;;;10.48;7.65;;;6.70;99.90;;;;;;5039360;28;20213;-81
2021/11/03 04:49:04;;;;;;;7.45;6.70;;;6.70;99.90;;;;;;5038993;28;20584;-81
2021/11/03 04:51:31;;;;;;;6.47;5.68;;;6.80;99.90;;;;;;5024010;28;20218;-81
2021/11/03 04:53:59;;;;;;;7.32;6.63;;;6.80;99.90;;;;;;5040258;28;20213;-81
2021/11/03 04:56:28;;;;;;;5.93;5.45;;;6.80;99.90;;;;;;5020656;28;20214;-81
2021/11/03 04:58:55;;;;;;;5.63;5.13;;;6.80;99.90;;;;;;5021348;28;20249;-81
2021/11/03 05:01:24;;;;;;;6.40;5.90;;;6.80;99.90;;;;;;5020738;28;20227;-81
2021/11/03 05:03:53;;;;;;;5.45;4.95;;;6.80;99.90;;;;;;5020191;28;20238;-81
2021/11/03 05:06:24;;;;;;;7.13;6.53;;;6.80;99.90;;;;;;5040335;28;20202;-81
2021/11/03 05:08:52;;;;;;;5.50;5.07;;;6.90;99.90;;;;;;5039458;28;20209;-81
2021/11/03 05:11:19;;;;;;;9.30;6.30;;;6.90;99.90;;;;;;4999551;28;20235;-81
2021/11/03 05:13:48;;;;;;;5.20;4.90;;;6.90;99.90;;;;;;5000167;28;20587;-81
2021/11/03 05:16:18;;;;;;;5.55;5.05;;;6.90;99.90;;;;;;5019878;28;20207;-81
2021/11/03 05:18:45;;;;;;;4.93;4.63;;;7.00;99.90;;;;;;5019905;28;20238;-81
2021/11/03 05:21:12;;;;;;;6.93;6.43;;;7.00;99.90;;;;;;5037469;28;20599;-81
2021/11/03 05:23:39;;;;;;;7.47;7.03;;;6.80;99.90;;;;;;5039451;28;20618;-82
2021/11/03 05:26:06;;;;;;;6.63;6.03;;;6.70;99.90;;;;;;5022209;28;20207;-81
2021/11/03 05:28:34;;;;;;;6.65;5.30;;;6.80;99.90;;;;;;5020430;28;20207;-81
2021/11/03 05:31:02;;;;;;;6.10;5.60;;;6.80;99.90;;;;;;5037416;28;20734;-81
2021/11/03 05:33:29;;;;;;;7.18;5.45;;;6.80;99.90;;;;;;5039859;28;20202;-81
2021/11/03 05:35:56;;;;;;;6.70;5.90;;;6.80;99.90;;;;;;5041523;28;20210;-81
2021/11/03 05:38:22;;;;;;;6.20;5.70;;;6.80;99.90;;;;;;5041619;28;20218;-81
2021/11/03 05:40:49;;;;;;;6.10;5.68;;;6.80;99.90;;;;;;5026184;28;20567;-81
2021/11/03 05:43:16;;;;;;;6.50;5.10;;;6.80;99.90;;;;;;5030768;28;20207;-81
2021/11/03 05:45:43;;;;;;;6.53;6.03;;;6.90;99.90;;;;;;5042047;28;20206;-81
2021/11/03 05:48:13;;;;;;;5.80;5.40;;;7.00;99.90;;;;;;5033349;28;20207;-81
2021/11/03 05:50:40;;;;;;;7.15;5.63;;;7.10;99.90;;;;;;5001988;28;20290;-81
2021/11/03 05:53:07;;;;;;;6.75;6.13;;;7.10;99.90;;;;;;5010742;28;20393;-81
2021/11/03 05:55:36;;;;;;;6.80;6.20;;;7.20;99.90;;;;;;5021691;28;20214;-81
2021/11/03 05:58:04;;;;;;;6.60;6.00;;;7.20;99.90;;;;;;5028829;28;20218;-81
2021/11/03 06:00:34;;;;;;;6.35;5.70;;;7.20;99.90;;;;;;5041678;28;20230;-81
2021/11/03 06:03:02;;;;;;;6.40;5.80;;;7.20;99.90;;;;;;5041644;28;20214;-81
2021/11/03 06:05:31;;;;;;;9.05;6.35;;;7.10;99.90;;;;;;5042549;28;20213;-81
2021/11/03 06:08:00;;;;;;;6.65;5.75;;;7.10;99.90;;;;;;5036455;28;20473;-81
2021/11/03 06:10:32;;;;;;;5.78;5.35;;;7.10;99.90;;;;;;5024145;28;20238;-80
2021/11/03 06:13:00;;;;;;;5.40;5.05;;;7.10;99.90;;;;;;5025605;28;20266;-80
2021/11/03 06:15:28;;;;;;;5.88;5.38;;;7.10;99.90;;;;;;5024450;28;20207;-80
2021/11/03 06:17:56;;;;;;;6.18;5.68;;;7.20;99.90;;;;;;5029160;28;20214;-80
2021/11/03 06:20:23;;;;;;;6.28;5.78;;;7.10;99.90;;;;;;5045338;28;20230;-80
2021/11/03 06:22:52;;;;;;;6.30;5.70;;;7.20;99.90;;;;;;5041361;28;20206;-80
2021/11/03 06:25:19;;;;;;;7.13;6.47;;;7.20;99.90;;;;;;5024924;28;20297;-81
2021/11/03 06:27:47;;;;;;;7.60;7.00;;;7.30;99.90;;;;;;5022093;28;20202;-80
2021/11/03 06:30:17;;;;;;;7.25;6.30;;;7.30;99.90;;;;;;5038604;28;20241;-80
2021/11/03 06:32:44;;;;;;;8.32;6.90;;;7.30;99.90;;;;;;5035874;28;20281;-79
2021/11/03 06:35:12;;;;;;;9.15;8.45;;;7.30;99.90;;;;;;5019129;28;20216;-79
2021/11/03 06:37:40;;;;;;;8.98;7.38;;;7.30;99.90;;;;;;5018420;28;20704;-80
2021/11/03 06:40:12;;;;;;;7.18;6.57;;;7.40;99.90;;;;;;5037950;28;20227;-80
2021/11/03 06:42:40;;;;;;;9.32;8.43;;;7.00;99.90;;;;;;5035635;28;20641;-79
2021/11/03 06:45:09;;;;;;;8.75;8.00;;;6.80;99.90;;;;;;5039447;28;20206;-79
2021/11/03 06:47:37;;;;;;;8.27;7.47;;;6.90;99.90;;;;;;5032862;28;20194;-79
2021/11/03 06:50:04;;;;;;;9.88;7.60;;;7.10;99.90;;;;;;5034471;28;20229;-79
2021/11/03 06:52:34;;;;;;;8.68;7.55;;;7.10;99.90;;;;;;5034650;28;20550;-79
2021/11/03 06:55:02;;;;;;;8.75;7.95;;;7.10;99.90;;;;;;5034941;28;20191;-79
2021/11/03 06:57:30;;;;;;;8.82;8.05;;;7.10;99.90;;;;;;5029744;28;20230;-79
2021/11/03 06:59:57;;;;;;;8.35;7.70;;;7.20;99.90;;;;;;5014831;28;20230;-79
2021/11/03 07:02:23;;;;;;;8.15;7.35;;;7.20;99.90;;;;;;5025818;28;20198;-79
2021/11/03 07:04:50;;;;;;;10.23;9.25;;;7.20;99.90;;;;;;5034824;28;20215;-79
2021/11/03 07:07:17;;;;;;;8.43;6.82;;;7.10;99.90;;;;;;5034480;28;20211;-78
2021/11/03 07:09:44;;;;;;;7.68;6.97;;;7.20;99.90;;;;;;5034731;28;20604;-79
2021/11/03 07:12:11;;;;;;;9.30;7.28;;;7.30;99.90;;;;;;5026082;28;20203;-80
2021/11/03 07:14:39;;;;;;;8.68;7.93;;;7.30;99.90;;;;;;5015197;28;20210;-80
2021/11/03 07:17:10;;;;;;;7.28;6.57;;;7.30;99.90;;;;;;5021566;28;20210;-80
2021/11/03 07:19:38;;;;;;;7.95;6.90;;;7.40;99.90;;;;;;5034092;28;20207;-79
2021/11/03 07:22:05;;;;;;;9.35;7.80;;;7.50;99.90;;;;;;5035757;28;20203;-79
2021/11/03 07:24:32;;;;;;;7.78;7.07;;;7.60;99.90;;;;;;5034057;28;20206;-80
2021/11/03 07:26:59;;;;;;;7.15;6.53;;;7.60;99.90;;;;;;5028365;28;20208;-77
2021/11/03 07:29:26;;;;;;;7.93;7.28;;;7.70;99.90;;;;;;5007831;28;20200;-79
2021/11/03 07:31:54;;;;;;;7.50;6.80;;;7.70;99.90;;;;;;5028705;23;20242;-82
2021/11/03 07:34:20;;;;;;;7.05;6.35;;;7.80;99.90;;;;;;5017263;28;20207;-84
2021/11/03 07:36:49;;;;;;;7.10;6.40;;;7.90;99.90;;;;;;5017565;28;20234;-84
2021/11/03 07:39:16;;;;;;;6.85;6.25;;;7.90;99.90;;;;;;5017949;28;20285;-84
2021/11/03 07:41:42;;;;;;;6.93;6.32;;;7.90;99.90;;;;;;5019747;28;20254;-83
2021/11/03 07:44:10;;;;;;;6.60;5.70;;;7.90;99.90;;;;;;5020312;28;20208;-84
2021/11/03 07:46:38;;;;;;;6.85;6.15;;;8.00;99.90;;;;;;5020917;28;20207;-84
2021/11/03 07:49:06;;;;;;;9.32;5.80;;;8.00;99.90;;;;;;5020971;28;20218;-82
2021/11/03 07:51:33;;;;;;;5.60;5.07;;;8.10;99.90;;;;;;5021773;28;20235;-83
2021/11/03 07:54:00;;;;;;;6.82;6.25;;;8.10;99.90;;;;;;5020869;28;20218;-84
2021/11/03 07:56:29;;;;;;;6.68;6.05;;;7.80;99.90;;;;;;5020047;28;20203;-84
2021/11/03 08:02:12;;;;;;;6.80;6.10;;;7.90;99.90;;;;;;5020547;28;20302;-83
2021/11/03 08:04:40;;;;;;;5.78;5.28;;;7.90;99.90;;;;;;5020486;28;20207;-82
2021/11/03 08:07:07;;;;;;;5.70;5.20;;;8.00;99.90;;;;;;5020038;28;20216;-83
2021/11/03 08:09:34;;;;;;;5.30;4.90;;;8.10;99.90;;;;;;5020441;28;20578;-84
2021/11/03 08:12:02;;;;;;;5.88;5.38;;;8.10;99.90;;;;;;5020265;28;20236;-84
2021/11/03 08:14:31;;;;;;;5.85;5.18;;;8.10;99.90;;;;;;5020666;28;20207;-84
2021/11/03 08:17:01;;;;;;;5.40;4.90;;;8.30;99.90;;;;;;5020629;28;20215;-84
2021/11/03 08:19:34;;;;;;;5.80;5.30;;;8.40;99.90;;;;;;5019713;28;20231;-84
2021/11/03 08:22:03;;;;;;;5.10;4.70;;;8.40;99.90;;;;;;5019353;28;20759;-84
2021/11/03 08:24:42;;;;;;;4.32;4.03;;;8.60;99.90;;;;;;5018855;28;20660;-83
2021/11/03 08:27:14;;;;;;;5.20;4.70;;;8.60;99.90;;;;;;5018987;28;20226;-85
2021/11/03 08:29:40;;;;;;;14.35;4.97;;;8.70;99.90;;;;;;5019396;28;20253;-85
2021/11/03 08:32:09;;;;;;;5.30;4.90;;;8.80;99.90;;;;;;5019046;28;20246;-85
2021/11/03 08:34:37;;;;;;;4.50;4.20;;;9.00;99.90;;;;;;5019915;28;20220;-84
2021/11/03 08:37:09;;;;;;;4.72;4.40;;;9.10;99.90;;;;;;5019421;28;20208;-85
2021/11/03 08:39:40;;;;;;;5.53;4.95;;;9.20;99.90;;;;;;5018490;28;20228;-83
2021/11/03 08:42:08;;;;;;;6.85;4.85;;;9.30;99.90;;;;;;5019816;28;20227;-81
2021/11/03 08:44:36;;;;;;;4.38;3.97;;;9.40;99.90;;;;;;5019698;28;20213;-82
2021/11/03 08:47:04;;;;;;;4.15;3.85;;;9.50;99.90;;;;;;5025851;28;20227;-81
2021/11/03 08:49:32;;;;;;;4.82;4.43;;;9.60;99.90;;;;;;5031190;28;20299;-81
2021/11/03 08:51:59;;;;;;;4.80;4.45;;;9.60;99.90;;;;;;5027885;28;20258;-80
2021/11/03 08:54:27;;;;;;;6.88;4.32;;;9.70;99.90;;;;;;5030826;28;20203;-81
2021/11/03 08:56:53;;;;;;;5.25;4.85;;;9.70;99.90;;;;;;5022506;28;20208;-81
2021/11/03 08:59:20;;;;;;;5.20;4.70;;;9.80;99.90;;;;;;5041392;28;20519;-81
2021/11/03 09:01:47;;;;;;;4.95;4.55;;;9.80;99.90;;;;;;5033237;28;20228;-81
2021/11/03 09:04:14;;;;;;;5.07;4.68;;;9.90;99.90;;;;;;5019863;28;20269;-82
2021/11/03 09:06:40;;;;;;;4.18;3.75;;;9.90;99.90;;;;;;5021855;28;20219;-82
2021/11/03 09:09:08;;;;;;;4.78;4.38;;;10.00;99.90;;;;;;5023489;28;20196;-83
2021/11/03 09:11:36;;;;;;;4.35;3.95;;;10.10;99.90;;;;;;5023288;28;20228;-82
2021/11/03 09:14:03;;;;;;;3.60;3.40;;;10.20;99.90;;;;;;5022316;28;20232;-81
2021/11/03 09:16:31;;;;;;;3.33;3.10;;;10.20;99.90;;;;;;5021741;28;20760;-82
2021/11/03 09:18:57;;;;;;;4.40;3.40;;;10.40;99.90;;;;;;5029315;28;20241;-82
2021/11/03 09:21:25;;;;;;;2.77;2.63;;;10.50;99.90;;;;;;5030700;28;20459;-82
2021/11/03 09:23:52;;;;;;;2.97;2.77;;;10.60;99.90;;;;;;5031479;28;20455;-82
2021/11/03 09:26:22;;;;;;;3.23;2.93;;;10.70;99.90;;;;;;5015108;28;20452;-82
2021/11/03 09:28:52;;;;;;;3.33;3.07;;;10.80;99.90;;;;;;5021867;28;20449;-81
2021/11/03 09:31:19;;;;;;;3.13;2.90;;;10.80;99.90;;;;;;5038476;28;20514;-82
2021/11/03 09:33:46;;;;;;;2.80;2.40;;;10.70;99.90;;;;;;5030571;28;20453;-82
2021/11/03 09:36:16;;;;;;;3.10;2.90;;;10.70;99.90;;;;;;5032512;28;20952;-82
2021/11/03 09:38:43;;;;;;;2.90;2.67;;;10.80;99.90;;;;;;5032230;28;20229;-82
2021/11/03 09:41:20;;;;;;;3.00;2.70;;;10.90;99.90;;;;;;5030472;28;20471;-82
2021/11/03 09:43:53;;;;;;;2.77;2.57;;;10.90;99.90;;;;;;5029463;28;20206;-82
2021/11/03 09:46:23;;;;;;;3.37;3.17;;;11.00;99.90;;;;;;5030767;28;20538;-82
2021/11/03 09:48:55;;;;;;;2.90;2.30;;;11.10;99.90;;;;;;5031946;28;20448;-81
2021/11/03 09:51:25;;;;;;;3.07;2.50;;;11.10;99.90;;;;;;5012705;28;20476;-82
2021/11/03 09:53:54;;;;;;;2.67;2.47;;;11.20;99.90;;;;;;5013946;28;20970;-81
2021/11/03 09:56:24;;;;;;;2.60;2.40;;;11.30;99.90;;;;;;5027288;28;20451;-82
2021/11/03 09:59:02;;;;;;;3.50;2.73;;;11.30;99.90;;;;;;5030501;28;21030;-82
2021/11/03 10:01:42;;;;;;;2.63;2.40;;;11.30;99.90;;;;;;5038154;28;20468;-82
2021/11/03 10:04:35;;;;;;;3.20;3.00;;;11.30;99.90;;;;;;5041515;28;20463;-82
2021/11/03 10:07:12;;;;;;;2.87;2.57;;;10.90;99.90;;;;;;5040899;28;20453;-82
2021/11/03 10:09:40;;;;;;;3.20;3.00;;;10.80;99.90;;;;;;5041211;28;20455;-82
2021/11/03 10:12:12;;;;;;;3.67;3.13;;;10.60;99.90;;;;;;5040841;28;20479;-82
2021/11/03 10:14:40;;;;;;;3.40;2.70;;;10.60;99.90;;;;;;5041389;28;20212;-82
2021/11/03 10:17:20;;;;;;;7.07;3.60;;;10.70;99.90;;;;;;5041595;28;20444;-83
2021/11/03 10:19:47;;;;;;;4.47;2.93;;;10.80;99.90;;;;;;5042343;28;20482;-82
2021/11/03 10:22:30;;;;;;;3.83;2.80;;;10.90;99.90;;;;;;5048578;28;20463;-82
2021/11/03 10:25:18;;;;;;;2.33;2.23;;;10.80;99.90;;;;;;5045523;28;20504;-81
2021/11/03 10:27:50;;;;;;;2.10;1.90;;;10.90;99.90;;;;;;5041171;28;20451;-82
2021/11/03 10:30:27;;;;;;;2.47;2.27;;;10.90;99.90;;;;;;5040853;28;20483;-81
2021/11/03 10:32:55;;;;;;;2.30;2.13;;;11.00;99.90;;;;;;5040215;28;20452;-82
2021/11/03 10:35:28;;;;;;;2.63;2.50;;;11.00;99.90;;;;;;5040304;28;20458;-82
2021/11/03 10:38:01;;;;;;;3.00;2.80;;;11.10;99.90;;;;;;5039710;28;20478;-81
2021/11/03 10:40:33;;;;;;;3.73;2.50;;;11.10;99.90;;;;;;5041427;28;20566;-82
2021/11/03 10:43:02;;;;;;;2.67;2.43;;;11.00;99.90;;;;;;5040623;28;20455;-82
2021/11/03 10:45:33;;;;;;;2.13;2.03;;;11.00;99.90;;;;;;5040701;28;20990;-82
2021/11/03 10:48:23;;;;;;;2.23;2.10;;;11.00;99.90;;;;;;5026262;28;20461;-83
2021/11/03 10:51:12;;;;;;;2.63;2.53;;;10.90;99.90;;;;;;5028624;28;20472;-82
2021/11/03 10:53:58;;;;;;;2.90;2.70;;;10.80;99.90;;;;;;5030873;28;20462;-82
2021/11/03 10:56:30;;;;;;;2.23;2.10;;;11.00;99.90;;;;;;5028028;28;20463;-82
2021/11/03 10:59:00;;;;;;;5.70;4.40;;;11.00;99.90;;;;;;5025739;28;21028;-82
2021/11/03 11:01:32;;;;;;;3.33;2.90;;;11.20;99.90;;;;;;5030457;28;21015;-82
2021/11/03 11:04:04;;;;;;;2.63;2.50;;;11.40;99.90;;;;;;5026459;28;20448;-83
2021/11/03 11:06:37;;;;;;;5.93;3.13;;;11.60;99.90;;;;;;5014008;28;20446;-83
2021/11/03 11:09:16;;;;;;;3.07;2.83;;;11.60;99.90;;;;;;5027847;28;20440;-82
2021/11/03 11:11:47;;;;;;;5.07;3.67;;;11.60;99.90;;;;;;5028961;28;20469;-83
2021/11/03 11:14:18;;;;;;;3.97;3.20;;;11.40;99.90;;;;;;5028747;28;20453;-83
2021/11/03 11:16:50;;;;;;;4.57;4.23;;;11.50;99.90;;;;;;5029887;28;20547;-83
2021/11/03 11:19:31;;;;;;;4.17;3.87;;;11.40;99.90;;;;;;5030153;28;20496;-85
2021/11/03 11:22:02;;;;;;;3.57;2.97;;;11.30;99.90;;;;;;5026077;28;20470;-82
2021/11/03 11:24:34;;;;;;;3.57;2.70;;;11.30;99.90;;;;;;5030166;28;20941;-84
2021/11/03 11:27:13;;;;;;;2.63;2.13;;;11.00;99.90;;;;;;5029055;28;20472;-83
2021/11/03 11:29:46;;;;;;;4.22;2.97;;;10.80;99.90;;;;;;5026221;28;20440;-82
2021/11/03 11:32:30;;;;;;;2.67;2.47;;;10.70;99.90;;;;;;5024386;28;20235;-82
2021/11/03 11:35:14;;;;;;;2.23;2.00;;;10.70;99.90;;;;;;5025699;28;20666;-82
2021/11/03 11:37:50;;;;;;;3.35;1.60;;;10.50;99.90;;;;;;5025846;28;20788;-82
2021/11/03 11:40:28;;;;;;;3.17;2.10;;;10.20;99.90;;;;;;5025532;28;20224;-82
2021/11/03 11:43:01;;;;;;;1.98;1.65;;;10.00;99.90;;;;;;5029302;28;20551;-82
2021/11/03 11:45:31;;;;;;;2.20;2.00;;;9.80;99.90;;;;;;5023354;28;20211;-82
2021/11/03 11:48:03;;;;;;;1.75;1.60;;;9.80;99.90;;;;;;5020553;28;20216;-82
2021/11/03 11:50:55;;;;;;;1.95;1.83;;;9.80;99.90;;;;;;5019225;28;20257;-82
2021/11/03 11:53:26;;;;;;;2.17;2.03;;;9.90;99.90;;;;;;5019451;28;20691;-82
2021/11/03 11:56:24;;;;;;;2.25;2.00;;;9.90;99.90;;;;;;5021337;28;20673;-82
2021/11/03 11:58:54;;;;;;;2.00;1.67;;;10.00;99.90;;;;;;4978129;28;20607;-84
2021/11/03 12:01:32;;;;;;;2.45;1.85;;;10.00;99.90;;;;;;5010941;28;20228;-83
2021/11/03 12:04:24;;;;;;;2.78;1.85;;;10.00;99.90;;;;;;5019366;28;20244;-83
2021/11/03 12:07:21;;;;;;;1.52;1.42;;;10.00;99.90;;;;;;5019448;28;20205;-83
2021/11/03 12:10:17;;;;;;;6.40;2.67;;;10.00;99.90;;;;;;4985549;28;20221;-83
2021/11/03 12:13:16;;;;;;;3.33;3.13;;;10.00;99.90;;;;;;5018852;28;20205;-83
2021/11/03 12:16:03;;;;;;;5.43;1.83;;;9.90;99.90;;;;;;5018779;28;20209;-82
2021/11/03 12:18:49;;;;;;;2.72;2.40;;;9.80;99.90;;;;;;5019641;28;20564;-83
2021/11/03 12:21:57;;;;;;;2.50;1.97;;;9.80;99.90;;;;;;5019999;28;20232;-83
2021/11/03 12:24:38;;;;;;;2.72;2.35;;;9.90;99.90;;;;;;5023143;28;20512;-83
2021/11/03 12:27:29;;;;;;;4.00;2.30;;;10.00;99.90;;;;;;5023132;28;20213;-83
2021/11/03 12:29:59;;;;;;;2.50;2.30;;;9.90;99.90;;;;;;5018865;28;20235;-83
2021/11/03 12:32:31;;;;;;;3.47;2.63;;;9.90;99.90;;;;;;5019102;28;20208;-82
2021/11/03 12:35:21;;;;;;;2.05;1.85;;;10.20;99.90;;;;;;5019356;28;20464;-83
2021/11/03 12:37:54;;;;;;;2.97;2.60;;;10.20;99.90;;;;;;5018949;28;20212;-83
2021/11/03 12:40:28;;;;;;;2.28;2.00;;;10.10;99.90;;;;;;5024665;28;20506;-81
2021/11/03 12:43:12;;;;;;;2.97;1.77;;;10.20;99.90;;;;;;5032896;28;20244;-82
2021/11/03 12:45:52;;;;;;;3.20;2.95;;;10.20;99.90;;;;;;5030999;28;20502;-80
2021/11/03 12:48:22;;;;;;;1.70;1.40;;;10.10;99.90;;;;;;5033442;28;20204;-82
2021/11/03 12:50:49;;;;;;;1.50;1.40;;;9.90;99.90;;;;;;5027202;28;20227;-83
2021/11/03 12:53:21;;;;;;;1.98;1.30;;;9.80;99.90;;;;;;5020088;28;20849;-82
2021/11/03 12:55:54;;;;;;;2.40;2.30;;;9.80;99.90;;;;;;5019900;28;20228;-82
2021/11/03 12:58:30;;;;;;;2.03;1.70;;;9.70;99.90;;;;;;5020349;28;20212;-82
2021/11/03 13:00:58;;;;;;;1.92;1.70;;;9.70;99.90;;;;;;5019191;28;20239;-82
2021/11/03 13:03:29;;;;;;;2.90;1.83;;;9.60;99.90;;;;;;5019536;28;20216;-82
2021/11/03 13:05:57;;;;;;;1.88;1.50;;;9.60;99.90;;;;;;5019908;28;20239;-82
2021/11/03 13:08:28;;;;;;;1.70;1.60;;;9.50;99.90;;;;;;5020260;28;20587;-82
2021/11/03 13:11:14;;;;;;;4.82;3.50;;;9.30;99.90;;;;;;5019495;28;20230;-81
2021/11/03 13:13:47;;;;;;;2.03;1.80;;;9.20;99.90;;;;;;5019679;28;20218;-81